createdAt,value
2019-04-06T00:00:03.885Z,95.53
2019-04-06T00:05:06.082Z,98.31
2019-04-06T00:10:08.739Z,98.53
2019-04-06T00:15:06.101Z,95.66
2019-04-06T00:20:06.355Z,98.31
2019-04-06T00:25:07.760Z,95.77
2019-04-06T00:30:04.359Z,97.6
2019-04-06T00:35:06.825Z,98.34
2019-04-06T00:40:07.925Z,97.57
2019-04-06T00:45:03.752Z,98.57
2019-04-06T00:50:07.468Z,97.72
2019-04-06T00:55:08.367Z,98.55
2019-04-06T01:00:04.075Z,97.67
2019-04-06T01:05:12.486Z,98.62
2019-04-06T01:10:08.849Z,97.79
2019-04-06T01:15:05.190Z,98.72
2019-04-06T01:20:25.163Z,95.95
2019-04-06T01:25:08.993Z,98.59
2019-04-06T01:30:09.018Z,95.79
2019-04-06T01:35:06.286Z,98.27
2019-04-06T01:40:10.870Z,98.53
2019-04-06T01:45:07.217Z,95.42
2019-04-06T01:50:09.417Z,97.04
2019-04-06T01:55:07.781Z,97.79
2019-04-06T02:00:03.821Z,97.01
2019-04-06T02:05:10.082Z,96.85
2019-04-06T02:10:07.342Z,95.16
2019-04-06T02:15:04.177Z,95.13
2019-04-06T02:20:07.770Z,95.09
2019-04-06T02:25:09.924Z,95.04
2019-04-06T02:30:07.404Z,95.1
2019-04-06T02:35:10.768Z,98.27
2019-04-06T02:40:15.184Z,98.23
2019-04-06T02:45:04.816Z,97.95
2019-04-06T02:50:11.546Z,97.41
2019-04-06T02:55:12.283Z,98.13
2019-04-06T03:00:05.233Z,94.92
2019-04-06T03:05:13.383Z,98.18
2019-04-06T03:10:06.179Z,97.86
2019-04-06T03:15:07.382Z,94.82
2019-04-06T03:20:09.563Z,98.13
2019-04-06T03:25:08.370Z,96.57
2019-04-06T03:30:03.425Z,98.28
2019-04-06T03:35:06.659Z,98.28
2019-04-06T03:40:04.803Z,98.07
2019-04-06T03:45:03.555Z,97.95
2019-04-06T03:50:04.518Z,97.83
2019-04-06T03:55:04.541Z,97.47
2019-04-06T04:00:03.150Z,97.73
2019-04-06T04:05:04.223Z,98.1
2019-04-06T04:10:02.986Z,98.23
2019-04-06T04:15:04.335Z,97.43
2019-04-06T04:20:04.274Z,98.47
2019-04-06T04:25:07.356Z,97.63
2019-04-06T04:30:04.084Z,98.53
2019-04-06T04:35:07.454Z,97.76
2019-04-06T04:40:07.873Z,98.59
2019-04-06T04:45:04.460Z,96.3
2019-04-06T04:50:07.945Z,96.42
2019-04-06T04:55:10.025Z,96.59
2019-04-06T05:00:04.365Z,96.74
2019-04-06T05:05:09.986Z,96.97
2019-04-06T05:10:05.722Z,97.21
2019-04-06T05:15:07.690Z,97.18
2019-04-06T05:20:09.359Z,97.08
2019-04-06T05:25:08.841Z,96.8
2019-04-06T05:30:03.671Z,98.58
2019-04-06T05:35:08.135Z,98.31
2019-04-06T05:40:07.150Z,97.92
2019-04-06T05:45:04.240Z,98.33
2019-04-06T05:50:06.330Z,95.16
2019-04-06T05:55:08.626Z,98.27
2019-04-06T06:00:04.156Z,97.28
2019-04-06T06:05:06.442Z,96.88
2019-04-06T06:10:04.911Z,96.72
2019-04-06T06:15:04.466Z,96.1
2019-04-06T06:20:07.089Z,95.75
2019-04-06T06:25:09.750Z,95.31
2019-04-06T06:30:04.592Z,95.09
2019-04-06T06:35:08.693Z,94.28
2019-04-06T06:40:09.955Z,94.3
2019-04-06T06:45:03.591Z,94
2019-04-06T06:50:09.699Z,93.51
2019-04-06T06:55:07.992Z,92.45
2019-04-06T07:00:04.015Z,91.83
2019-04-06T07:05:07.498Z,90.92
2019-04-06T07:10:09.349Z,90.36
2019-04-06T07:15:04.131Z,89.62
2019-04-06T07:20:06.333Z,88.94
2019-04-06T07:25:07.645Z,87.75
2019-04-06T07:30:03.400Z,87.91
2019-04-06T07:35:06.599Z,87.5
2019-04-06T07:40:07.300Z,88.12
2019-04-06T07:45:03.315Z,87.14
2019-04-06T07:50:06.626Z,86.93
2019-04-06T07:55:07.980Z,86.35
2019-04-06T08:00:02.852Z,84.05
2019-04-06T08:05:07.056Z,82.86
2019-04-06T08:10:06.963Z,80.91
2019-04-06T08:15:02.907Z,81.18
2019-04-06T08:20:05.879Z,79.67
2019-04-06T08:25:10.144Z,78.46
2019-04-06T08:30:02.756Z,75.88
2019-04-06T08:35:07.353Z,76.3
2019-04-06T08:40:09.562Z,73.97
2019-04-06T08:45:03.149Z,73.88
2019-04-06T08:50:08.796Z,73.65
2019-04-06T08:55:09.405Z,73.32
2019-04-06T09:00:02.942Z,74.65
2019-04-06T09:05:09.467Z,75.76
2019-04-06T09:10:07.559Z,76.01
2019-04-06T09:15:03.079Z,77.26
2019-04-06T09:20:07.279Z,76.74
2019-04-06T09:25:07.996Z,77.28
2019-04-06T09:30:02.702Z,76.27
2019-04-06T09:35:06.975Z,75.62
2019-04-06T09:40:06.563Z,72.35
2019-04-06T09:45:03.067Z,71.35
2019-04-06T09:50:06.733Z,71.3
2019-04-06T09:55:07.582Z,72.01
2019-04-06T10:00:03.163Z,71.65
2019-04-06T10:05:06.534Z,71.78
2019-04-06T10:10:07.386Z,68.7
2019-04-06T10:15:02.960Z,71.03
2019-04-06T10:20:06.609Z,67.88
2019-04-06T10:25:07.671Z,68.35
2019-04-06T10:30:03.324Z,67.57
2019-04-06T10:35:05.639Z,68.36
2019-04-06T10:40:05.280Z,68.05
2019-04-06T10:45:02.893Z,65.49
2019-04-06T10:50:03.935Z,65.72
2019-04-06T10:55:05.258Z,64.8
2019-04-06T11:00:04.806Z,65.16
2019-04-06T11:05:06.618Z,65.57
2019-04-06T11:10:05.920Z,64.43
2019-04-06T11:15:02.672Z,64.03
2019-04-06T11:20:04.580Z,63.1
2019-04-06T11:25:06.286Z,64.11
2019-04-06T11:30:14.943Z,64.66
2019-04-06T11:35:06.081Z,64.42
2019-04-06T11:40:07.323Z,63.84
2019-04-06T11:45:03.993Z,64.31
2019-04-06T11:50:06.944Z,64.23
2019-04-06T11:55:06.307Z,64.68
2019-04-06T12:00:04.042Z,63.78
2019-04-06T12:05:07.861Z,63.52
2019-04-06T12:10:04.976Z,63.43
2019-04-06T12:15:06.659Z,64.13
2019-04-06T12:20:07.130Z,64.19
2019-04-06T12:25:07.403Z,63.87
2019-04-06T12:30:04.572Z,63.45
2019-04-06T12:35:07.435Z,63.56
2019-04-06T12:40:07.256Z,64.09
2019-04-06T12:45:04.046Z,64.09
2019-04-06T12:50:06.531Z,63.87
2019-04-06T12:55:07.422Z,62.35
2019-04-06T13:00:04.127Z,62.74
2019-04-06T13:05:06.940Z,63.33
2019-04-06T13:10:07.322Z,62.38
2019-04-06T13:15:04.002Z,65.03
2019-04-06T13:20:06.701Z,62.74
2019-04-06T13:25:08.476Z,62.68
2019-04-06T13:30:04.328Z,62.13
2019-04-06T13:35:07.239Z,63.14
2019-04-06T13:40:09.229Z,63.32
2019-04-06T13:45:06.109Z,62.7
2019-04-06T13:50:09.384Z,63.36
2019-04-06T13:55:07.728Z,62.89
2019-04-06T14:00:04.851Z,62.82
2019-04-06T14:05:09.801Z,62.88
2019-04-06T14:10:05.433Z,63.43
2019-04-06T14:15:04.440Z,63.87
2019-04-06T14:20:06.378Z,64.48
2019-04-06T14:25:07.907Z,63.78
2019-04-06T14:30:03.467Z,63.6
2019-04-06T14:35:07.010Z,63.16
2019-04-06T14:40:07.235Z,63.83
2019-04-06T14:45:03.374Z,62.99
2019-04-06T14:50:06.097Z,63.13
2019-04-06T14:55:08.060Z,63.25
2019-04-06T15:00:02.700Z,63.1
2019-04-06T15:05:07.829Z,63.19
2019-04-06T15:10:07.898Z,63.61
2019-04-06T15:15:03.427Z,64.17
2019-04-06T15:20:07.267Z,63.31
2019-04-06T15:25:10.193Z,63.93
2019-04-06T15:30:03.252Z,63.93
2019-04-06T15:35:07.282Z,63.84
2019-04-06T15:40:09.724Z,63.61
2019-04-06T15:45:04.462Z,64.14
2019-04-06T15:50:09.728Z,63.74
2019-04-06T15:55:08.017Z,63.82
2019-04-06T16:00:04.050Z,63.69
2019-04-06T16:05:08.657Z,63.18
2019-04-06T16:10:07.941Z,63.8
2019-04-06T16:15:02.557Z,62.9
2019-04-06T16:20:08.187Z,62.35
2019-04-06T16:25:06.872Z,62.29
2019-04-06T16:30:03.697Z,62.35
2019-04-06T16:35:06.817Z,62.59
2019-04-06T16:40:07.353Z,62.51
2019-04-06T16:45:02.912Z,62.63
2019-04-06T16:50:06.049Z,62.94
2019-04-06T16:55:06.810Z,63.27
2019-04-06T17:00:03.558Z,63.19
2019-04-06T17:05:06.638Z,63.03
2019-04-06T17:10:07.744Z,63.27
2019-04-06T17:15:05.551Z,64.02
2019-04-06T17:20:06.793Z,63.84
2019-04-06T17:25:06.490Z,64.57
2019-04-06T17:30:03.107Z,64.42
2019-04-06T17:35:05.510Z,64.68
2019-04-06T17:40:05.443Z,64.76
2019-04-06T17:45:03.078Z,64.91
2019-04-06T17:50:04.619Z,67.17
2019-04-06T17:55:07.836Z,70.56
2019-04-06T18:00:04.344Z,72.4
2019-04-06T18:05:06.289Z,73.07
2019-04-06T18:10:06.237Z,75.52
2019-04-06T18:15:04.261Z,76.22
2019-04-06T18:20:07.313Z,75.48
2019-04-06T18:25:06.168Z,75.75
2019-04-06T18:30:03.367Z,76.2
2019-04-06T18:35:05.974Z,77.75
2019-04-06T18:40:06.986Z,78.85
2019-04-06T18:45:03.778Z,80.1
2019-04-06T18:50:08.071Z,79.67
2019-04-06T18:55:07.494Z,81.22
2019-04-06T19:00:04.183Z,81.2
2019-04-06T19:05:08.140Z,81.27
2019-04-06T19:10:07.412Z,81.44
2019-04-06T19:15:04.290Z,81.75
2019-04-06T19:20:07.921Z,82.47
2019-04-06T19:25:08.004Z,83.11
2019-04-06T19:30:03.795Z,83.64
2019-04-06T19:35:07.765Z,83.95
2019-04-06T19:40:07.050Z,84.23
2019-04-06T19:45:04.535Z,84.41
2019-04-06T19:50:06.532Z,84.56
2019-04-06T19:55:07.489Z,84.95
2019-04-06T20:00:04.170Z,85.56
2019-04-06T20:05:07.304Z,86.06
2019-04-06T20:10:07.162Z,85.68
2019-04-06T20:15:04.044Z,86.03
2019-04-06T20:20:05.829Z,86.59
2019-04-06T20:25:07.524Z,85.81
2019-04-06T20:30:03.834Z,85.37
2019-04-06T20:35:06.562Z,85.18
2019-04-06T20:40:07.364Z,84.93
2019-04-06T20:45:04.152Z,85.11
2019-04-06T20:50:07.075Z,85.72
2019-04-06T20:55:06.944Z,86.48
2019-04-06T21:00:04.364Z,86.43
2019-04-06T21:05:08.098Z,86.09
2019-04-06T21:10:07.116Z,85.3
2019-04-06T21:15:14.934Z,86.8
2019-04-06T21:20:06.577Z,86.51
2019-04-06T21:25:07.947Z,85.5
2019-04-06T21:30:03.143Z,86.39
2019-04-06T21:35:08.149Z,85.08
2019-04-06T21:40:07.050Z,84.6
2019-04-06T21:45:02.839Z,85.67
2019-04-06T21:50:07.007Z,84.97
2019-04-06T21:55:07.838Z,85.1
2019-04-06T22:00:04.248Z,85.34
2019-04-06T22:05:07.298Z,85.45
2019-04-06T22:10:08.268Z,85.69
2019-04-06T22:15:03.060Z,86.06
2019-04-06T22:20:07.378Z,86.35
2019-04-06T22:25:10.138Z,86.51
2019-04-06T22:30:02.723Z,86.65
2019-04-06T22:35:08.964Z,86.11
2019-04-06T22:40:09.610Z,87.11
2019-04-06T22:45:04.017Z,87
2019-04-06T22:50:09.579Z,87.4
2019-04-06T22:55:08.520Z,88.06
2019-04-06T23:00:03.180Z,88.07
2019-04-06T23:05:09.831Z,88.14
2019-04-06T23:10:07.958Z,88.04
2019-04-06T23:15:05.144Z,87.98
2019-04-06T23:20:06.207Z,88.56
2019-04-06T23:25:08.409Z,89.03
2019-04-06T23:30:03.464Z,89.49
2019-04-06T23:35:08.171Z,89.9
2019-04-06T23:40:06.444Z,90.26
2019-04-06T23:45:03.559Z,90.29
2019-04-06T23:50:08.016Z,90.28
2019-04-06T23:55:08.441Z,90.32
